KDOV

Dover AFB Airport

Dover, Delaware, USA
METAR KDOV 220956Z AUTO 00000KT 10SM CLR 16/12 A3012 RMK AO2 SLP203 T01610123 $
Observed Flight Rules
May-22 @ 09:56 UTC (20 minutes ago) Visual Flight Rules
Visibility Clouds
10 miles
  • Clear skies
Temperatures Readings
Current 16°C / 61°F
Dewpoint 12°C / 54°F
Humidity 77%
Altimeter 30.12" Hg
Pressure 1020.3 hPa
Elevation 9
METAR KDOV 220956Z AUTO 00000KT 10SM CLR 16/12 A3012 RMK AO2 SLP203 T01610123 $
Observed Flight Rules
May-22 @ 09:56 UTC
(20 minutes ago)
VFR
Clouds
  • Clear skies
Temperature Dewpoint
16°C / 61°F 12°C / 54°F
Humidity Altimeter Pressure
77% 30.12" Hg 1020.3 hPa